Flight Track Log - Related Links

Times and Time Zones

All times are in EDT time to prevent confusion due to time zone crossing. See the ASQ4492 flight status page for this flight to view local times or setup timezone preferences in your user account.

Time Position Orientation Groundspeed Altitude Reporting Facility
EDT Latitude Longitude Course Direction KTS MPH feet Rate Location/Type
Thu 06:36:42 PM 32.8667 -96.8667 166° South 160 184 1,400  Level Dallas / Fort Worth TRACON
Thu 06:37:48 PM 32.9000 -96.9167 308° West 213 245 3,800 2,429 Climbing Dallas / Fort Worth TRACON
Thu 06:38:48 PM 32.9167 -96.9833 287° West 220 253 6,500 2,450 Climbing Dallas / Fort Worth TRACON
Thu 06:39:00 PM 32.6317 -96.7345 164° South  Level Estimated
Thu 06:39:48 PM 32.8667 -97.0000 196° South 274 315 8,700  Level Dallas / Fort Worth TRACON
Thu 06:40:00 PM 32.5598 -96.6955 168° South  Level Estimated
Thu 06:41:00 PM 32.4840 -96.7216 196° South  Level FlightAware Approximate
Thu 06:41:31 PM 32.7344 -96.9639 167° South 295 339 11,400  Level Fort Worth Center
Thu 06:42:00 PM 32.4128 -96.6812 166° South  Level Estimated
Thu 06:42:31 PM 32.6319 -96.9300 164° South 335 386 12,600  Level Fort Worth Center
Thu 06:43:31 PM 32.5422 -96.9008 165° South 364 419 13,500 1,000 Climbing Fort Worth Center
Thu 06:44:31 PM 32.4292 -96.8622 164° South 376 433 14,600 1,100 Climbing Fort Worth Center
Thu 06:45:31 PM 32.3206 -96.8283 165° South 390 449 15,700 1,050 Climbing Fort Worth Center
Thu 06:46:31 PM 32.2222 -96.7922 163° South 404 465 16,700 1,050 Climbing Fort Worth Center
Thu 06:47:31 PM 32.1197 -96.7511 161° South 399 459 17,800 1,150 Climbing Fort Worth Center
Thu 06:48:31 PM 32.0025 -96.7078 163° South 404 465 19,000 1,100 Climbing Fort Worth Center
Thu 06:49:31 PM 31.8939 -96.6694 163° South 404 465 20,000 850 Climbing Fort Worth Center
Thu 06:50:31 PM 31.7808 -96.6217 160° South 414 476 20,700 500 Climbing Fort Worth Center
Thu 06:51:31 PM 31.6656 -96.5736 160° South 430 495 21,000 176 Climbing Fort Worth Center
Thu 06:52:13 PM 31.5889 -96.5417 160° South 440 506 21,000  Level Houston Center
Thu 06:53:15 PM 31.4667 -96.4931 161° South 451 519 21,000  Level Houston Center
Thu 06:54:17 PM 31.3483 -96.4303 156° South 455 524 21,000  Level Houston Center
Thu 06:55:19 PM 31.2344 -96.3572 151° Southeast 457 526 21,000  Level Houston Center
Thu 06:56:21 PM 31.1206 -96.2842 151° Southeast 459 528 21,000  Level Houston Center
Thu 06:57:23 PM 31.0064 -96.2100 151° Southeast 462 532 21,000 -581 Level Houston Center
Thu 06:58:25 PM 30.8914 -96.1389 152° Southeast 462 532 19,800 -1,887 Descending Houston Center
Thu 06:59:27 PM 30.7633 -96.0569 151° Southeast 446 513 17,100 -2,274 Descending Houston Center
Thu 07:00:29 PM 30.6647 -95.9953 152° Southeast 429 494 15,100 -2,204 Descending Houston Center
Thu 07:01:05 PM 30.5975 -95.9531 152° Southeast 428 493 13,500 -2,032 Descending Houston Center
Thu 07:01:31 PM 30.5636 -95.9294 149° Southeast 420 483 13,000 -1,279 Descending Houston Center
Thu 07:02:06 PM 30.4953 -95.8872 152° Southeast 376 433 12,200 -968 Descending Houston Center
Thu 07:02:33 PM 30.4686 -95.8714 153° Southeast 387 445 12,000 -197 Descending Houston Center
Thu 07:03:07 PM 30.4094 -95.8172 142° Southeast 367 422 12,000  Level Houston Center
Thu 07:03:35 PM 30.3922 -95.7958 133° Southeast 361 415 12,000  Level Houston Center
Thu 07:04:03 PM 30.3492 -95.7542 140° Southeast 311 358 12,000  Level Houston Center
Thu 07:04:38 PM 30.3133 -95.7153 137° Southeast 320 368 12,000 -590 Level Houston Center
Thu 07:05:04 PM 30.2819 -95.6822 138° Southeast 318 366 11,400 -1,452 Descending Houston Center
Thu 07:05:40 PM 30.2494 -95.6489 138° Southeast 310 357 10,500 -1,645 Descending Houston Center
Thu 07:06:06 PM 30.2219 -95.6214 139° Southeast 301 346 9,700 -1,839 Descending Houston Center
Thu 07:06:42 PM 30.1869 -95.5839 137° Southeast 304 350 8,600 -2,066 Descending Houston Center
Thu 07:07:07 PM 30.1525 -95.5500 140° Southeast 304 350 7,600 -1,839 Descending Houston Center
Thu 07:07:44 PM 30.1233 -95.5172 136° Southeast 307 353 6,700 -1,433 Descending Houston Center
Thu 07:08:14 PM 30.1072 -95.4661 110° East 300 345 6,000 -677 Descending Houston Center
Thu 07:08:46 PM 30.1061 -95.4269 92° East 297 342 6,000  Level Houston Center
Thu 07:09:15 PM 30.1064 -95.3647 90° East 288 331 6,000  Level Houston Center
Thu 07:09:48 PM 30.1058 -95.3331 91° East 292 336 6,000  Level Houston Center
Thu 07:10:17 PM 30.1064 -95.2731 89° East 268 308 6,000 -387 Level Houston Center
Thu 07:10:50 PM 30.1056 -95.2297 91° East 267 307 5,600 -984 Descending Houston Center
Thu 07:11:18 PM 30.0992 -95.1942 102° East 247 284 5,000 -1,355 Descending Houston Center
Thu 07:11:52 PM 30.0858 -95.1558 112° Southeast 247 284 4,200 -1,452 Descending Houston Center
Thu 07:12:20 PM 30.0550 -95.1489 169° South 237 273 3,500 -1,258 Descending Houston Center
Thu 07:12:54 PM 30.0275 -95.1639 205° Southwest 226 260 2,900 -1,279 Descending Houston Center
Thu 07:13:21 PM 30.0089 -95.1956 236° Southwest 210 242 2,200 -968 Descending Houston Center
Thu 07:13:56 PM 30.0081 -95.2239 268° West 215 247 1,900 -787 Descending Houston Center
Thu 07:14:22 PM 30.0064 -95.2586 267° West 186 214 1,400 -774 Descending Houston Center
Thu 07:14:58 PM 30.0081 -95.2806 275° West 194 223 1,100 -774 Descending Houston Center
Thu 07:15:24 PM 30.0064 -95.3044 265° West 128 147 600 -677 Descending Houston Center
Thu 07:16:00 PM 30.0089 -95.3292 277° West 170 196 400 -333 Descending Houston Center

Login

Don't have an account? Register now (free) for customized features, flight alerts, and more!